Wetterstation Vordersexau
Wetterdaten: Woche 02.10.23 - 08.10.23 (KW40)
Datum Zeit Temp. A. Feuchte A. Luftdruck Regen Wind Richtung Taupunkt Windchill Windben
02.10.2023 00:00 15,3 C 93 % 1019,3 hPa 0,0 l/m 0,0 km/h (0 Bft) N 14,2 C 15,3 C 2,5 km/h (1 Bft)
02.10.2023 01:00 14,6 C 95 % 1019,1 hPa 0,0 l/m 0,0 km/h (0 Bft) O 13,8 C 14,6 C 2,5 km/h (1 Bft)
02.10.2023 02:00 14,2 C 95 % 1019,1 hPa 0,0 l/m 1,1 km/h (1 Bft) N 13,4 C 14,2 C 2,5 km/h (1 Bft)
02.10.2023 03:00 13,6 C 96 % 1019,2 hPa 0,0 l/m 0,0 km/h (0 Bft) N 13,0 C 13,6 C 2,5 km/h (1 Bft)
02.10.2023 04:00 13,6 C 95 % 1018,8 hPa 0,0 l/m 0,0 km/h (0 Bft) O-SO 12,8 C 13,6 C 2,5 km/h (1 Bft)
02.10.2023 05:00 13,1 C 93 % 1018,4 hPa 0,0 l/m 2,5 km/h (1 Bft) O-SO 12,0 C 13,1 C 7,2 km/h (2 Bft)
02.10.2023 06:00 12,3 C 92 % 1018,3 hPa 0,0 l/m 1,1 km/h (1 Bft) N 11,0 C 12,3 C 3,6 km/h (1 Bft)
02.10.2023 07:00 10,7 C 97 % 1018,3 hPa 0,0 l/m 0,0 km/h (0 Bft) N 10,2 C 10,7 C 0,0 km/h (0 Bft)
02.10.2023 08:00 10,6 C 97 % 1018,5 hPa 0,0 l/m 0,0 km/h (0 Bft) O-SO 10,1 C 10,6 C 2,5 km/h (1 Bft)
02.10.2023 09:00 11,3 C 91 % 1018,8 hPa 0,0 l/m 1,1 km/h (1 Bft) N 9,9 C 11,3 C 2,5 km/h (1 Bft)
02.10.2023 10:00 15,4 C 81 % 1018,8 hPa 0,0 l/m 0,0 km/h (0 Bft) O-SO 12,2 C 15,4 C 0,0 km/h (0 Bft)
02.10.2023 11:00 17,9 C 75 % 1018,8 hPa 0,0 l/m 2,5 km/h (1 Bft) N 13,4 C 17,9 C 3,6 km/h (1 Bft)
02.10.2023 12:00 21,4 C 56 % 1018,6 hPa 0,0 l/m 0,0 km/h (0 Bft) N 12,3 C 21,4 C 2,5 km/h (1 Bft)
02.10.2023 13:00 23,5 C 55 % 1017,9 hPa 0,0 l/m 0,0 km/h (0 Bft) NW 13,9 C 23,5 C 0,0 km/h (0 Bft)
02.10.2023 14:00 25,7 C 50 % 1017,3 hPa 0,0 l/m 1,1 km/h (1 Bft) S-SW 14,5 C 25,7 C 3,6 km/h (1 Bft)
02.10.2023 15:00 28,2 C 49 % 1016,7 hPa 0,0 l/m 1,1 km/h (1 Bft) N 16,5 C 28,2 C 2,5 km/h (1 Bft)
02.10.2023 16:00 29,0 C 54 % 1015,6 hPa 0,0 l/m 0,0 km/h (0 Bft) W 18,7 C 29,0 C 2,5 km/h (1 Bft)
02.10.2023 17:00 28,6 C 47 % 1015,3 hPa 0,0 l/m 3,6 km/h (1 Bft) W 16,2 C 28,6 C 6,1 km/h (2 Bft)
02.10.2023 18:00 29,3 C 45 % 1014,7 hPa 0,0 l/m 2,5 km/h (1 Bft) W 16,1 C 29,3 C 3,6 km/h (1 Bft)
02.10.2023 19:00 26,6 C 61 % 1014,7 hPa 0,0 l/m 2,5 km/h (1 Bft) N 18,4 C 26,6 C 2,5 km/h (1 Bft)
02.10.2023 20:00 21,0 C 74 % 1014,4 hPa 0,0 l/m 0,0 km/h (0 Bft) N 16,2 C 21,0 C 2,5 km/h (1 Bft)
02.10.2023 21:00 18,8 C 81 % 1014,7 hPa 0,0 l/m 0,0 km/h (0 Bft) O 15,5 C 18,8 C 0,0 km/h (0 Bft)
02.10.2023 22:00 18,1 C 82 % 1014,8 hPa 0,0 l/m 1,1 km/h (1 Bft) N 15,0 C 18,1 C 2,5 km/h (1 Bft)
02.10.2023 23:00 17,0 C 84 % 1014,2 hPa 0,0 l/m 0,0 km/h (0 Bft) N 14,3 C 17,0 C 0,0 km/h (0 Bft)
03.10.2023 00:00 16,1 C 86 % 1014,1 hPa 0,0 l/m 0,0 km/h (0 Bft) O 13,8 C 16,1 C 2,5 km/h (1 Bft)
03.10.2023 01:00 14,7 C 90 % 1014,4 hPa 0,0 l/m 1,1 km/h (1 Bft) O-SO 13,1 C 14,7 C 2,5 km/h (1 Bft)
03.10.2023 02:00 14,4 C 91 % 1014,1 hPa 0,0 l/m 3,6 km/h (1 Bft) O-SO 12,9 C 14,4 C 6,1 km/h (2 Bft)
03.10.2023 03:00 13,8 C 92 % 1013,8 hPa 0,0 l/m 2,5 km/h (1 Bft) O-SO 12,5 C 13,8 C 6,1 km/h (2 Bft)
03.10.2023 04:00 13,8 C 92 % 1013,7 hPa 0,0 l/m 1,1 km/h (1 Bft) O-SO 12,5 C 13,8 C 2,5 km/h (1 Bft)
03.10.2023 05:00 13,6 C 91 % 1013,3 hPa 0,0 l/m 2,5 km/h (1 Bft) SW 12,2 C 13,6 C 3,6 km/h (1 Bft)
03.10.2023 06:00 22,3 C 53 % 1013,3 hPa 0,0 l/m 5,0 km/h (1 Bft) S-SO 12,2 C 22,3 C 9,7 km/h (2 Bft)
03.10.2023 07:00 22,4 C 51 % 1013,1 hPa 0,0 l/m 7,2 km/h (2 Bft) S 11,8 C 22,1 C 13,3 km/h (3 Bft)
03.10.2023 08:00 22,0 C 52 % 1013,3 hPa 0,0 l/m 7,2 km/h (2 Bft) S-SW 11,7 C 21,7 C 13,3 km/h (3 Bft)
03.10.2023 09:00 22,1 C 53 % 1013,4 hPa 0,0 l/m 6,1 km/h (2 Bft) S 12,1 C 22,1 C 9,7 km/h (2 Bft)
03.10.2023 10:00 23,4 C 52 % 1013,8 hPa 0,0 l/m 6,1 km/h (2 Bft) S-SO 13,0 C 23,4 C 9,7 km/h (2 Bft)
03.10.2023 11:00 24,6 C 50 % 1013,9 hPa 0,0 l/m 5,0 km/h (1 Bft) SW 13,5 C 24,6 C 7,2 km/h (2 Bft)
03.10.2023 12:00 25,0 C 52 % 1014,3 hPa 0,0 l/m 12,2 km/h (2 Bft) W-SW 14,4 C 23,8 C 18,4 km/h (3 Bft)
03.10.2023 13:00 24,3 C 60 % 1013,9 hPa 0,0 l/m 22,0 km/h (4 Bft) SW 16,0 C 21,5 C 31,7 km/h (5 Bft)
03.10.2023 14:00 23,9 C 62 % 1014,3 hPa 0,0 l/m 19,4 km/h (3 Bft) W 16,2 C 21,3 C 31,7 km/h (5 Bft)
03.10.2023 15:00 24,2 C 62 % 1014,9 hPa 0,0 l/m 14,8 km/h (3 Bft) W-SW 16,4 C 22,4 C 22,0 km/h (4 Bft)
03.10.2023 16:00 23,8 C 63 % 1015,6 hPa 0,0 l/m 11,2 km/h (2 Bft) SW 16,3 C 22,6 C 14,8 km/h (3 Bft)
03.10.2023 17:00 24,0 C 63 % 1015,7 hPa 0,0 l/m 12,2 km/h (2 Bft) NW 16,5 C 22,6 C 14,8 km/h (3 Bft)
03.10.2023 18:00 19,5 C 85 % 1017,1 hPa 0,0 l/m 3,6 km/h (1 Bft) W-SW 16,9 C 19,5 C 6,1 km/h (2 Bft)
03.10.2023 19:00 16,5 C 93 % 1019,6 hPa 0,9 l/m 2,5 km/h (1 Bft) S-SO 15,4 C 16,5 C 3,6 km/h (1 Bft)
03.10.2023 20:00 15,5 C 93 % 1021,2 hPa 0,3 l/m 3,6 km/h (1 Bft) N 14,4 C 15,5 C 6,1 km/h (2 Bft)
03.10.2023 21:00 14,6 C 93 % 1021,8 hPa 0,0 l/m 0,0 km/h (0 Bft) N 13,5 C 14,6 C 2,5 km/h (1 Bft)
03.10.2023 22:00 14,1 C 97 % 1023,1 hPa 0,0 l/m 0,0 km/h (0 Bft) N 13,6 C 14,1 C 2,5 km/h (1 Bft)
03.10.2023 23:00 13,5 C 98 % 1023,8 hPa 0,0 l/m 0,0 km/h (0 Bft) O-SO 13,2 C 13,5 C 0,0 km/h (0 Bft)
04.10.2023 00:00 13,1 C 98 % 1024,0 hPa 0,0 l/m 1,1 km/h (1 Bft) O-SO 12,8 C 13,1 C 2,5 km/h (1 Bft)
04.10.2023 01:00 12,2 C 99 % 1024,0 hPa 0,0 l/m 1,1 km/h (1 Bft) N 12,0 C 12,2 C 6,1 km/h (2 Bft)
04.10.2023 02:00 11,7 C 99 % 1024,2 hPa 0,0 l/m 0,0 km/h (0 Bft) N 11,5 C 11,7 C 0,0 km/h (0 Bft)
04.10.2023 03:00 10,9 C 99 % 1024,2 hPa 0,0 l/m 0,0 km/h (0 Bft) O-SO 10,7 C 10,9 C 0,0 km/h (0 Bft)
04.10.2023 04:00 10,2 C 99 % 1024,0 hPa 0,0 l/m 1,1 km/h (1 Bft) O-SO 10,0 C 10,2 C 2,5 km/h (1 Bft)
04.10.2023 05:00 10,2 C 99 % 1023,9 hPa 0,0 l/m 1,1 km/h (1 Bft) N 10,0 C 10,2 C 2,5 km/h (1 Bft)
04.10.2023 06:00 9,9 C 99 % 1024,1 hPa 0,0 l/m 0,0 km/h (0 Bft) N 9,8 C 9,9 C 0,0 km/h (0 Bft)
04.10.2023 07:00 10,0 C 99 % 1024,5 hPa 0,0 l/m 0,0 km/h (0 Bft) SO 9,8 C 10,0 C 0,0 km/h (0 Bft)
04.10.2023 08:00 10,6 C 99 % 1024,3 hPa 0,0 l/m 1,1 km/h (1 Bft) N 10,4 C 10,6 C 2,5 km/h (1 Bft)
04.10.2023 09:00 10,3 C 99 % 1024,4 hPa 0,0 l/m 0,0 km/h (0 Bft) N 10,1 C 10,3 C 2,5 km/h (1 Bft)
04.10.2023 10:00 12,4 C 94 % 1024,9 hPa 0,0 l/m 0,0 km/h (0 Bft) W-SW 11,5 C 12,4 C 0,0 km/h (0 Bft)
04.10.2023 11:00 14,8 C 85 % 1025,0 hPa 0,0 l/m 1,1 km/h (1 Bft) W 12,3 C 14,8 C 2,5 km/h (1 Bft)
04.10.2023 12:00 16,7 C 83 % 1024,8 hPa 0,0 l/m 3,6 km/h (1 Bft) W-SW 13,8 C 16,7 C 6,1 km/h (2 Bft)
04.10.2023 13:00 17,8 C 75 % 1024,4 hPa 0,0 l/m 3,6 km/h (1 Bft) W 13,3 C 17,8 C 6,1 km/h (2 Bft)
04.10.2023 14:00 19,8 C 60 % 1023,9 hPa 0,0 l/m 5,0 km/h (1 Bft) W 11,8 C 19,8 C 6,1 km/h (2 Bft)
04.10.2023 15:00 19,7 C 57 % 1023,3 hPa 0,0 l/m 5,0 km/h (1 Bft) W 10,9 C 19,7 C 7,2 km/h (2 Bft)
04.10.2023 16:00 19,5 C 55 % 1022,6 hPa 0,0 l/m 3,6 km/h (1 Bft) N 10,2 C 19,5 C 6,1 km/h (2 Bft)
04.10.2023 17:00 19,0 C 57 % 1022,8 hPa 0,0 l/m 3,6 km/h (1 Bft) N-NO 10,3 C 19,0 C 6,1 km/h (2 Bft)
04.10.2023 18:00 18,4 C 57 % 1022,5 hPa 0,0 l/m 3,6 km/h (1 Bft) N 9,7 C 18,4 C 6,1 km/h (2 Bft)
04.10.2023 19:00 17,3 C 64 % 1022,4 hPa 0,0 l/m 0,0 km/h (0 Bft) N 10,4 C 17,3 C 0,0 km/h (0 Bft)
04.10.2023 20:00 14,5 C 78 % 1022,5 hPa 0,0 l/m 0,0 km/h (0 Bft) NO 10,7 C 14,5 C 2,5 km/h (1 Bft)
04.10.2023 21:00 12,3 C 86 % 1022,7 hPa 0,0 l/m 1,1 km/h (1 Bft) N 10,0 C 12,3 C 2,5 km/h (1 Bft)
04.10.2023 22:00 11,8 C 88 % 1022,7 hPa 0,0 l/m 0,0 km/h (0 Bft) NO 9,9 C 11,8 C 2,5 km/h (1 Bft)
04.10.2023 23:00 10,0 C 93 % 1022,6 hPa 0,0 l/m 1,1 km/h (1 Bft) N 8,9 C 10,0 C 2,5 km/h (1 Bft)
05.10.2023 00:00 9,8 C 92 % 1022,7 hPa 0,0 l/m 0,0 km/h (0 Bft) N 8,6 C 9,8 C 2,5 km/h (1 Bft)
05.10.2023 01:00 8,9 C 95 % 1022,5 hPa 0,0 l/m 0,0 km/h (0 Bft) N 8,1 C 8,9 C 2,5 km/h (1 Bft)
05.10.2023 02:00 8,4 C 95 % 1022,3 hPa 0,0 l/m 0,0 km/h (0 Bft) N 7,6 C 8,4 C 0,0 km/h (0 Bft)
05.10.2023 03:00 8,2 C 96 % 1022,5 hPa 0,0 l/m 0,0 km/h (0 Bft) N 7,6 C 8,2 C 0,0 km/h (0 Bft)
05.10.2023 04:00 8,0 C 97 % 1021,7 hPa 0,0 l/m 0,0 km/h (0 Bft) N 7,6 C 8,0 C 0,0 km/h (0 Bft)
05.10.2023 05:00 7,5 C 97 % 1021,5 hPa 0,0 l/m 0,0 km/h (0 Bft) N 7,1 C 7,5 C 0,0 km/h (0 Bft)
05.10.2023 06:00 7,4 C 97 % 1021,4 hPa 0,0 l/m 0,0 km/h (0 Bft) N 7,0 C 7,4 C 0,0 km/h (0 Bft)
05.10.2023 07:00 7,7 C 97 % 1022,0 hPa 0,0 l/m 0,0 km/h (0 Bft) NO 7,3 C 7,7 C 0,0 km/h (0 Bft)
05.10.2023 08:00 7,9 C 98 % 1021,9 hPa 0,0 l/m 1,1 km/h (1 Bft) N 7,6 C 7,9 C 2,5 km/h (1 Bft)
05.10.2023 09:00 8,4 C 98 % 1022,1 hPa 0,0 l/m 0,0 km/h (0 Bft) N 8,1 C 8,4 C 0,0 km/h (0 Bft)
05.10.2023 10:00 10,4 C 92 % 1022,2 hPa 0,0 l/m 0,0 km/h (0 Bft) N 9,2 C 10,4 C 2,5 km/h (1 Bft)
05.10.2023 11:00 12,4 C 89 % 1022,7 hPa 0,0 l/m 0,0 km/h (0 Bft) N 10,6 C 12,4 C 0,0 km/h (0 Bft)
05.10.2023 12:00 13,9 C 83 % 1022,7 hPa 0,0 l/m 2,5 km/h (1 Bft) N-NW 11,1 C 13,9 C 3,6 km/h (1 Bft)
05.10.2023 13:00 16,2 C 77 % 1023,0 hPa 0,0 l/m 6,1 km/h (2 Bft) N-NW 12,2 C 16,2 C 9,7 km/h (2 Bft)
05.10.2023 14:00 16,8 C 72 % 1022,4 hPa 0,0 l/m 2,5 km/h (1 Bft) W 11,7 C 16,8 C 3,6 km/h (1 Bft)
05.10.2023 15:00 19,2 C 61 % 1022,2 hPa 0,0 l/m 5,0 km/h (1 Bft) W-NW 11,5 C 19,2 C 7,2 km/h (2 Bft)
05.10.2023 16:00 18,4 C 58 % 1021,8 hPa 0,0 l/m 2,5 km/h (1 Bft) W-NW 10,0 C 18,4 C 3,6 km/h (1 Bft)
05.10.2023 17:00 17,8 C 63 % 1021,5 hPa 0,0 l/m 1,1 km/h (1 Bft) N-NO 10,7 C 17,8 C 2,5 km/h (1 Bft)
05.10.2023 18:00 17,3 C 65 % 1021,5 hPa 0,0 l/m 1,1 km/h (1 Bft) N-NO 10,7 C 17,3 C 2,5 km/h (1 Bft)
05.10.2023 19:00 15,4 C 78 % 1021,5 hPa 0,0 l/m 1,1 km/h (1 Bft) N-NO 11,6 C 15,4 C 2,5 km/h (1 Bft)
05.10.2023 20:00 12,7 C 86 % 1022,1 hPa 0,0 l/m 1,1 km/h (1 Bft) N 10,4 C 12,7 C 2,5 km/h (1 Bft)
05.10.2023 21:00 11,9 C 87 % 1022,1 hPa 0,0 l/m 0,0 km/h (0 Bft) NO 9,8 C 11,9 C 0,0 km/h (0 Bft)
05.10.2023 22:00 10,3 C 92 % 1022,3 hPa 0,0 l/m 1,1 km/h (1 Bft) N 9,1 C 10,3 C 2,5 km/h (1 Bft)
05.10.2023 23:00 9,5 C 92 % 1022,5 hPa 0,0 l/m 0,0 km/h (0 Bft) N 8,3 C 9,5 C 0,0 km/h (0 Bft)
06.10.2023 00:00 8,4 C 93 % 1022,3 hPa 0,0 l/m 0,0 km/h (0 Bft) N 7,3 C 8,4 C 0,0 km/h (0 Bft)
06.10.2023 01:00 8,8 C 94 % 1022,4 hPa 0,0 l/m 0,0 km/h (0 Bft) N 7,9 C 8,8 C 2,5 km/h (1 Bft)
06.10.2023 02:00 7,9 C 95 % 1022,6 hPa 0,0 l/m 0,0 km/h (0 Bft) N 7,1 C 7,9 C 2,5 km/h (1 Bft)
06.10.2023 03:00 7,4 C 96 % 1022,6 hPa 0,0 l/m 0,0 km/h (0 Bft) N 6,8 C 7,4 C 0,0 km/h (0 Bft)
06.10.2023 04:00 7,2 C 97 % 1022,7 hPa 0,0 l/m 0,0 km/h (0 Bft) N 6,8 C 7,2 C 0,0 km/h (0 Bft)
06.10.2023 05:00 6,4 C 97 % 1022,4 hPa 0,0 l/m 0,0 km/h (0 Bft) N 6,0 C 6,4 C 0,0 km/h (0 Bft)
06.10.2023 06:00 6,4 C 98 % 1022,2 hPa 0,0 l/m 0,0 km/h (0 Bft) N 6,1 C 6,4 C 0,0 km/h (0 Bft)
06.10.2023 07:00 5,4 C 97 % 1022,2 hPa 0,0 l/m 0,0 km/h (0 Bft) N 5,0 C 5,4 C 0,0 km/h (0 Bft)
06.10.2023 08:00 5,0 C 98 % 1022,0 hPa 0,0 l/m 0,0 km/h (0 Bft) N 4,7 C 5,0 C 0,0 km/h (0 Bft)
06.10.2023 09:00 5,8 C 98 % 1022,7 hPa 0,0 l/m 0,0 km/h (0 Bft) N 5,5 C 5,8 C 0,0 km/h (0 Bft)
06.10.2023 10:00 10,1 C 88 % 1022,9 hPa 0,0 l/m 0,0 km/h (0 Bft) O 8,2 C 10,1 C 0,0 km/h (0 Bft)
06.10.2023 11:00 12,5 C 81 % 1022,6 hPa 0,0 l/m 1,1 km/h (1 Bft) N-NW 9,3 C 12,5 C 2,5 km/h (1 Bft)
06.10.2023 12:00 14,5 C 77 % 1022,8 hPa 0,0 l/m 2,5 km/h (1 Bft) N-NW 10,5 C 14,5 C 3,6 km/h (1 Bft)
06.10.2023 13:00 17,0 C 70 % 1022,3 hPa 0,0 l/m 1,1 km/h (1 Bft) NW 11,5 C 17,0 C 2,5 km/h (1 Bft)
06.10.2023 14:00 18,6 C 63 % 1021,6 hPa 0,0 l/m 3,6 km/h (1 Bft) NW 11,4 C 18,6 C 6,1 km/h (2 Bft)
06.10.2023 15:00 20,5 C 58 % 1021,2 hPa 0,0 l/m 2,5 km/h (1 Bft) NW 11,9 C 20,5 C 3,6 km/h (1 Bft)
06.10.2023 16:00 20,5 C 54 % 1020,9 hPa 0,0 l/m 1,1 km/h (1 Bft) NW 10,9 C 20,5 C 3,6 km/h (1 Bft)
06.10.2023 17:00 20,0 C 59 % 1020,5 hPa 0,0 l/m 2,5 km/h (1 Bft) N 11,7 C 20,0 C 2,5 km/h (1 Bft)
06.10.2023 18:00 20,8 C 53 % 1020,2 hPa 0,0 l/m 0,0 km/h (0 Bft) N 10,9 C 20,8 C 0,0 km/h (0 Bft)
06.10.2023 19:00 18,9 C 70 % 1020,3 hPa 0,0 l/m 0,0 km/h (0 Bft) NW 13,3 C 18,9 C 0,0 km/h (0 Bft)
06.10.2023 20:00 14,4 C 84 % 1020,8 hPa 0,0 l/m 1,1 km/h (1 Bft) N 11,7 C 14,4 C 2,5 km/h (1 Bft)
06.10.2023 21:00 12,0 C 87 % 1021,0 hPa 0,0 l/m 0,0 km/h (0 Bft) N 9,9 C 12,0 C 3,6 km/h (1 Bft)
06.10.2023 22:00 10,9 C 87 % 1021,6 hPa 0,0 l/m 0,0 km/h (0 Bft) N 8,8 C 10,9 C 2,5 km/h (1 Bft)
06.10.2023 23:00 10,3 C 86 % 1021,3 hPa 0,0 l/m 0,0 km/h (0 Bft) N 8,1 C 10,3 C 0,0 km/h (0 Bft)
07.10.2023 00:00 9,6 C 86 % 1021,7 hPa 0,0 l/m 0,0 km/h (0 Bft) N 7,4 C 9,6 C 0,0 km/h (0 Bft)
07.10.2023 01:00 8,6 C 88 % 1021,6 hPa 0,0 l/m 0,0 km/h (0 Bft) N 6,7 C 8,6 C 0,0 km/h (0 Bft)
07.10.2023 02:00 8,6 C 87 % 1021,6 hPa 0,0 l/m 0,0 km/h (0 Bft) N 6,6 C 8,6 C 2,5 km/h (1 Bft)
07.10.2023 03:00 7,3 C 91 % 1021,4 hPa 0,0 l/m 0,0 km/h (0 Bft) N 5,9 C 7,3 C 0,0 km/h (0 Bft)
07.10.2023 04:00 6,9 C 92 % 1021,3 hPa 0,0 l/m 0,0 km/h (0 Bft) N 5,7 C 6,9 C 0,0 km/h (0 Bft)
07.10.2023 05:00 6,5 C 92 % 1020,9 hPa 0,0 l/m 0,0 km/h (0 Bft) N 5,3 C 6,5 C 2,5 km/h (1 Bft)
07.10.2023 06:00 6,4 C 93 % 1021,1 hPa 0,0 l/m 0,0 km/h (0 Bft) N-NO 5,4 C 6,4 C 0,0 km/h (0 Bft)
07.10.2023 07:00 6,4 C 93 % 1021,6 hPa 0,0 l/m 1,1 km/h (1 Bft) N 5,4 C 6,4 C 3,6 km/h (1 Bft)
07.10.2023 08:00 7,2 C 89 % 1021,3 hPa 0,0 l/m 0,0 km/h (0 Bft) O 5,5 C 7,2 C 2,5 km/h (1 Bft)
07.10.2023 09:00 7,1 C 91 % 1022,1 hPa 0,0 l/m 1,1 km/h (1 Bft) NW 5,7 C 7,1 C 2,5 km/h (1 Bft)
07.10.2023 10:00 10,9 C 77 % 1022,8 hPa 0,0 l/m 1,1 km/h (1 Bft) S-SW 7,0 C 10,9 C 3,6 km/h (1 Bft)
07.10.2023 11:00 13,4 C 70 % 1022,6 hPa 0,0 l/m 2,5 km/h (1 Bft) S-SW 8,0 C 13,4 C 3,6 km/h (1 Bft)
07.10.2023 12:00 15,4 C 64 % 1022,2 hPa 0,0 l/m 1,1 km/h (1 Bft) W-NW 8,6 C 15,4 C 2,5 km/h (1 Bft)
07.10.2023 13:00 18,7 C 59 % 1022,9 hPa 0,0 l/m 1,1 km/h (1 Bft) S-SW 10,5 C 18,7 C 3,6 km/h (1 Bft)
07.10.2023 14:00 20,2 C 49 % 1022,2 hPa 0,0 l/m 2,5 km/h (1 Bft) W 9,1 C 20,2 C 6,1 km/h (2 Bft)
07.10.2023 15:00 21,9 C 50 % 1021,5 hPa 0,0 l/m 2,5 km/h (1 Bft) N 11,0 C 21,9 C 3,6 km/h (1 Bft)
07.10.2023 16:00 24,4 C 39 % 1021,6 hPa 0,0 l/m 0,0 km/h (0 Bft) W-NW 9,5 C 24,4 C 0,0 km/h (0 Bft)
07.10.2023 17:00 24,6 C 37 % 1021,2 hPa 0,0 l/m 1,1 km/h (1 Bft) W 8,9 C 24,6 C 2,5 km/h (1 Bft)
07.10.2023 18:00 24,2 C 33 % 1021,4 hPa 0,0 l/m 1,1 km/h (1 Bft) N 6,9 C 24,2 C 2,5 km/h (1 Bft)
07.10.2023 19:00 20,2 C 55 % 1021,6 hPa 0,0 l/m 0,0 km/h (0 Bft) N 10,9 C 20,2 C 0,0 km/h (0 Bft)
07.10.2023 20:00 15,6 C 67 % 1021,8 hPa 0,0 l/m 0,0 km/h (0 Bft) SO 9,5 C 15,6 C 2,5 km/h (1 Bft)
07.10.2023 21:00 14,1 C 72 % 1021,8 hPa 0,0 l/m 1,1 km/h (1 Bft) N 9,1 C 14,1 C 2,5 km/h (1 Bft)
07.10.2023 22:00 12,9 C 76 % 1022,1 hPa 0,0 l/m 0,0 km/h (0 Bft) SO 8,8 C 12,9 C 0,0 km/h (0 Bft)
07.10.2023 23:00 12,3 C 76 % 1022,3 hPa 0,0 l/m 1,1 km/h (1 Bft) SO 8,2 C 12,3 C 2,5 km/h (1 Bft)
08.10.2023 00:00 11,6 C 78 % 1022,3 hPa 0,0 l/m 3,6 km/h (1 Bft) SO 7,9 C 11,6 C 7,2 km/h (2 Bft)
08.10.2023 01:00 11,6 C 76 % 1021,9 hPa 0,0 l/m 0,0 km/h (0 Bft) N 7,5 C 11,6 C 2,5 km/h (1 Bft)
08.10.2023 02:00 11,2 C 77 % 1021,9 hPa 0,0 l/m 0,0 km/h (0 Bft) SO 7,3 C 11,2 C 0,0 km/h (0 Bft)
08.10.2023 03:00 10,2 C 80 % 1022,3 hPa 0,0 l/m 1,1 km/h (1 Bft) N 6,9 C 10,2 C 3,6 km/h (1 Bft)
08.10.2023 04:00 10,1 C 80 % 1021,7 hPa 0,0 l/m 0,0 km/h (0 Bft) N 6,8 C 10,1 C 2,5 km/h (1 Bft)
08.10.2023 05:00 10,1 C 79 % 1021,6 hPa 0,0 l/m 0,0 km/h (0 Bft) N 6,6 C 10,1 C 2,5 km/h (1 Bft)
08.10.2023 06:00 9,9 C 80 % 1021,3 hPa 0,0 l/m 0,0 km/h (0 Bft) N 6,6 C 9,9 C 2,5 km/h (1 Bft)
08.10.2023 07:00 9,4 C 83 % 1021,3 hPa 0,0 l/m 0,0 km/h (0 Bft) N 6,7 C 9,4 C 0,0 km/h (0 Bft)
08.10.2023 08:00 8,1 C 89 % 1021,3 hPa 0,0 l/m 0,0 km/h (0 Bft) N 6,4 C 8,1 C 0,0 km/h (0 Bft)
08.10.2023 09:00 9,4 C 87 % 1021,8 hPa 0,0 l/m 0,0 km/h (0 Bft) N 7,3 C 9,4 C 2,5 km/h (1 Bft)
08.10.2023 10:00 13,2 C 71 % 1022,3 hPa 0,0 l/m 0,0 km/h (0 Bft) O-SO 8,1 C 13,2 C 2,5 km/h (1 Bft)
08.10.2023 11:00 15,0 C 70 % 1022,1 hPa 0,0 l/m 1,1 km/h (1 Bft) O 9,6 C 15,0 C 2,5 km/h (1 Bft)
08.10.2023 12:00 18,3 C 60 % 1022,3 hPa 0,0 l/m 1,1 km/h (1 Bft) N 10,4 C 18,3 C 2,5 km/h (1 Bft)
08.10.2023 13:00 20,1 C 58 % 1022,6 hPa 0,0 l/m 0,0 km/h (0 Bft) S-SW 11,6 C 20,1 C 0,0 km/h (0 Bft)
08.10.2023 14:00 23,7 C 44 % 1022,1 hPa 0,0 l/m 1,1 km/h (1 Bft) S-SW 10,7 C 23,7 C 2,5 km/h (1 Bft)
08.10.2023 15:00 25,4 C 40 % 1021,3 hPa 0,0 l/m 2,5 km/h (1 Bft) N 10,8 C 25,4 C 3,6 km/h (1 Bft)
08.10.2023 16:00 27,2 C 41 % 1021,0 hPa 0,0 l/m 0,0 km/h (0 Bft) N 12,8 C 27,2 C 2,5 km/h (1 Bft)
08.10.2023 17:00 27,0 C 36 % 1020,4 hPa 0,0 l/m 0,0 km/h (0 Bft) N 10,6 C 27,0 C 2,5 km/h (1 Bft)
08.10.2023 18:00 27,0 C 37 % 1020,2 hPa 0,0 l/m 0,0 km/h (0 Bft) N 11,1 C 27,0 C 0,0 km/h (0 Bft)
08.10.2023 19:00 21,0 C 63 % 1020,2 hPa 0,0 l/m 0,0 km/h (0 Bft) N 13,7 C 21,0 C 2,5 km/h (1 Bft)
08.10.2023 20:00 17,5 C 73 % 1020,4 hPa 0,0 l/m 0,0 km/h (0 Bft) N 12,6 C 17,5 C 2,5 km/h (1 Bft)
08.10.2023 21:00 15,9 C 78 % 1020,4 hPa 0,0 l/m 0,0 km/h (0 Bft) N 12,1 C 15,9 C 2,5 km/h (1 Bft)
08.10.2023 22:00 15,4 C 76 % 1020,1 hPa 0,0 l/m 0,0 km/h (0 Bft) N 11,2 C 15,4 C 0,0 km/h (0 Bft)
08.10.2023 23:00 14,3 C 80 % 1020,2 hPa 0,0 l/m 0,0 km/h (0 Bft) N 10,9 C 14,3 C 2,5 km/h (1 Bft)
Min-Datum _ 06.10.23 07.10.23 03.10.23 - 02.10.23 - 06.10.23 06.10.23 02.10.23
_ Min-Zeit 08:21 18:21 07:21 - 00:21 - 08:21 08:21 07:21
Minimum _ 5,0 C 33 % 1013,1 hPa - 0,0 km/h (0 Bft) - 4,7 C 5,0 C 0,0 km/h (0 Bft)
Max-Datum _ 02.10.23 04.10.23 04.10.23 03.10.23 03.10.23 - 02.10.23 02.10.23 03.10.23
_ Max-Zeit 18:21 01:21 11:21 19:21 13:21 - 16:21 18:21 13:21
Maximum _ 29,3 C 99 % 1025,0 hPa 0,9 l/m 22,0 km/h
SW (4 Bft)
- 18,7 C 29,3 C 31,7 km/h
SW (5 Bft)
Durchschnitt _ 15,0 C 78 % 1020,6 hPa #1,2 l/m 1,6 km/h (1 Bft) O-SO 10,6 C 15,0 C 3,4 km/h (1 Bft)
www.sexauwetter.de